createdAt,value
2023-02-18T00:01:37.442Z,10.3
2023-02-18T00:05:31.802Z,10.3
2023-02-18T00:07:36.548Z,10.3
2023-02-18T00:09:37.314Z,10.3
2023-02-18T00:11:36.002Z,10.3
2023-02-18T00:13:35.686Z,10.3
2023-02-18T00:17:37.070Z,10.2
2023-02-18T00:19:35.160Z,10.3
2023-02-18T00:21:35.727Z,10.3
2023-02-18T00:23:36.736Z,10.3
2023-02-18T00:25:40.593Z,10.3
2023-02-18T00:29:35.440Z,10.2
2023-02-18T00:31:34.870Z,10.2
2023-02-18T00:33:35.221Z,10.2
2023-02-18T00:35:34.621Z,10.2
2023-02-18T00:37:35.352Z,10.2
2023-02-18T00:41:40.086Z,10.3
2023-02-18T00:43:35.691Z,10.2
2023-02-18T00:49:33.388Z,10.3
2023-02-18T00:53:36.793Z,10.3
2023-02-18T00:55:37.135Z,10.3
2023-02-18T00:59:33.878Z,10.3
2023-02-18T01:01:35.732Z,10.4
2023-02-18T01:05:37.195Z,10.4
2023-02-18T01:07:34.955Z,10.3
2023-02-18T01:11:34.945Z,10.3
2023-02-18T01:13:34.889Z,10.2
2023-02-18T01:17:36.437Z,10.2
2023-02-18T01:19:36.080Z,10.2
2023-02-18T01:23:33.596Z,10.3
2023-02-18T01:25:33.912Z,10.3
2023-02-18T01:29:34.768Z,10.3
2023-02-18T01:31:36.527Z,10.3
2023-02-18T01:35:36.444Z,10.4
2023-02-18T01:37:31.309Z,10.4
2023-02-18T01:41:35.097Z,10.5
2023-02-18T01:43:34.501Z,10.5
2023-02-18T01:45:37.110Z,10.5
2023-02-18T01:47:37.235Z,10.4
2023-02-18T01:49:35.263Z,10.5
2023-02-18T01:51:36.782Z,10.5
2023-02-18T01:55:35.177Z,10.5
2023-02-18T01:59:35.954Z,10.5
2023-02-18T02:01:36.672Z,10.4
2023-02-18T02:03:36.731Z,10.4
2023-02-18T02:05:33.058Z,10.5
2023-02-18T02:07:34.872Z,10.4
2023-02-18T02:09:36.586Z,10.4
2023-02-18T02:11:36.043Z,10.4
2023-02-18T02:13:35.530Z,10.4
2023-02-18T02:17:33.644Z,10.4
2023-02-18T02:19:36.341Z,10.5
2023-02-18T02:23:34.042Z,10.4
2023-02-18T02:25:32.095Z,10.4
2023-02-18T02:29:35.235Z,10.5
2023-02-18T02:31:33.982Z,10.5
2023-02-18T02:33:36.969Z,10.5
2023-02-18T02:35:33.844Z,10.5
2023-02-18T02:37:36.129Z,10.5
2023-02-18T02:41:33.030Z,10.5
2023-02-18T02:43:34.181Z,10.4
2023-02-18T02:45:36.441Z,10.5
2023-02-18T02:47:33.955Z,10.4
2023-02-18T02:49:32.912Z,10.4
2023-02-18T02:53:32.083Z,10.5
2023-02-18T02:55:32.532Z,10.4
2023-02-18T02:59:37.124Z,10.5
2023-02-18T03:01:33.829Z,10.5
2023-02-18T03:05:35.505Z,10.4
2023-02-18T03:07:34.117Z,10.4
2023-02-18T03:09:36.810Z,10.5
2023-02-18T03:11:35.451Z,10.4
2023-02-18T03:13:33.490Z,10.4
2023-02-18T03:17:33.511Z,10.5
2023-02-18T03:19:32.464Z,10.4
2023-02-18T03:21:37.245Z,10.5
2023-02-18T03:23:36.101Z,10.5
2023-02-18T03:25:35.993Z,10.5
2023-02-18T03:29:36.024Z,10.4
2023-02-18T03:31:34.917Z,10.5
2023-02-18T03:33:37.096Z,10.5
2023-02-18T03:35:32.496Z,10.4
2023-02-18T03:37:33.510Z,10.4
2023-02-18T03:39:36.174Z,10.4
2023-02-18T03:41:35.237Z,10.3
2023-02-18T03:43:33.379Z,10.3
2023-02-18T03:45:37.287Z,10.4
2023-02-18T03:47:31.813Z,10.4
2023-02-18T03:49:36.237Z,10.4
2023-02-18T03:51:37.427Z,10.4
2023-02-18T03:53:34.449Z,10.3
2023-02-18T03:55:31.409Z,10.3
2023-02-18T03:57:36.813Z,10.3
2023-02-18T03:59:33.945Z,10.3
2023-02-18T04:01:34.253Z,10.4
2023-02-18T04:05:33.449Z,10.3
2023-02-18T04:07:35.371Z,10.3
2023-02-18T04:09:36.766Z,10.3
2023-02-18T04:11:35.373Z,10.3
2023-02-18T04:13:35.115Z,10.3
2023-02-18T04:15:36.138Z,10.2
2023-02-18T04:17:34.064Z,10.3
2023-02-18T04:19:36.317Z,10.2
2023-02-18T04:23:34.512Z,10.2
2023-02-18T04:25:34.786Z,10.2
2023-02-18T04:29:35.180Z,10.3
2023-02-18T04:31:33.365Z,10.3
2023-02-18T04:33:36.649Z,10.3
2023-02-18T04:35:34.827Z,10.3
2023-02-18T04:37:37.012Z,10.2
2023-02-18T04:39:36.765Z,10.2
2023-02-18T04:41:36.001Z,10.3
2023-02-18T04:43:35.696Z,10.3
2023-02-18T04:45:36.645Z,10.3
2023-02-18T04:47:33.912Z,10.3
2023-02-18T04:49:33.493Z,10.2
2023-02-18T04:53:33.550Z,10.2
2023-02-18T04:55:33.563Z,10.2
2023-02-18T04:59:37.297Z,10.2
2023-02-18T05:01:34.878Z,10.2
2023-02-18T05:03:36.634Z,10.3
2023-02-18T05:05:34.791Z,10.3
2023-02-18T05:07:36.105Z,10.3
2023-02-18T05:09:36.303Z,10.3
2023-02-18T05:11:33.591Z,10.2
2023-02-18T05:13:35.738Z,10.3
2023-02-18T05:17:34.727Z,10.3
2023-02-18T05:19:36.064Z,10.4
2023-02-18T05:21:37.752Z,10.3
2023-02-18T05:23:35.654Z,10.3
2023-02-18T05:25:35.693Z,10.2
2023-02-18T05:29:33.512Z,10.2
2023-02-18T05:31:35.043Z,10.2
2023-02-18T05:33:36.996Z,10.2
2023-02-18T05:35:35.972Z,10.2
2023-02-18T05:37:36.942Z,10.1
2023-02-18T05:43:33.205Z,10.1
2023-02-18T05:45:37.491Z,10.2
2023-02-18T05:47:35.081Z,10.2
2023-02-18T05:49:35.644Z,10.2
2023-02-18T05:51:37.668Z,10.2
2023-02-18T05:53:34.576Z,10.1
2023-02-18T05:55:34.198Z,10.1
2023-02-18T05:57:36.935Z,10.1
2023-02-18T05:59:35.996Z,10.1
2023-02-18T06:01:35.911Z,10.1
2023-02-18T06:03:37.297Z,10.2
2023-02-18T06:05:36.257Z,10.1
2023-02-18T06:07:32.872Z,10.1
2023-02-18T06:11:35.948Z,10
2023-02-18T06:13:35.533Z,10
2023-02-18T06:17:35.001Z,10.1
2023-02-18T06:19:36.419Z,10.1
2023-02-18T06:23:34.844Z,10.2
2023-02-18T06:25:35.345Z,10.2
2023-02-18T06:29:36.203Z,10.2
2023-02-18T06:31:34.374Z,10.3
2023-02-18T06:35:34.541Z,10.2
2023-02-18T06:37:35.485Z,10.1
2023-02-18T06:39:37.501Z,10.2
2023-02-18T06:41:33.888Z,10.1
2023-02-18T06:43:34.502Z,10.2
2023-02-18T06:47:37.188Z,10.1
2023-02-18T06:49:34.235Z,10
2023-02-18T06:53:32.837Z,10.1
2023-02-18T06:55:36.395Z,10
2023-02-18T06:59:36.440Z,10
2023-02-18T07:01:36.121Z,10
2023-02-18T07:03:37.284Z,10
2023-02-18T07:05:35.032Z,10
2023-02-18T07:07:35.242Z,10
2023-02-18T07:11:39.793Z,10
2023-02-18T07:13:36.022Z,10
2023-02-18T07:15:36.664Z,10.1
2023-02-18T07:17:35.523Z,10.1
2023-02-18T07:19:35.506Z,10
2023-02-18T07:21:36.977Z,10.1
2023-02-18T07:23:35.639Z,10.1
2023-02-18T07:25:32.900Z,10.1
2023-02-18T07:29:36.181Z,10.2
2023-02-18T07:31:34.360Z,10.2
2023-02-18T07:33:37.079Z,10.3
2023-02-18T07:35:36.319Z,10.3
2023-02-18T07:37:35.242Z,10.2
2023-02-18T07:39:37.508Z,10.2
2023-02-18T07:41:36.056Z,10.2
2023-02-18T07:43:34.242Z,10.3
2023-02-18T07:45:36.954Z,10.3
2023-02-18T07:47:36.814Z,10.4
2023-02-18T07:49:36.077Z,10.4
2023-02-18T07:51:37.760Z,10.3
2023-02-18T07:53:35.529Z,10.4
2023-02-18T07:55:36.013Z,10.5
2023-02-18T07:57:37.120Z,10.5
2023-02-18T07:59:33.405Z,10.7
2023-02-18T08:01:35.213Z,11
2023-02-18T08:03:37.884Z,11.2
2023-02-18T08:05:34.374Z,11.1
2023-02-18T08:07:35.119Z,11.6
2023-02-18T08:09:37.036Z,11.6
2023-02-18T08:11:34.702Z,11.6
2023-02-18T08:13:36.495Z,11.6
2023-02-18T08:15:37.744Z,11.7
2023-02-18T08:17:35.639Z,11.7
2023-02-18T08:19:34.310Z,11.8
2023-02-18T08:23:36.844Z,11.8
2023-02-18T08:25:35.519Z,11.8
2023-02-18T08:27:37.839Z,11.8
2023-02-18T08:29:35.085Z,11.9
2023-02-18T08:31:34.704Z,11.9
2023-02-18T08:35:32.882Z,11.9
2023-02-18T08:37:52.355Z,11.9
2023-02-18T08:39:39.254Z,12
2023-02-18T08:41:35.602Z,12
2023-02-18T08:43:32.875Z,12.1
2023-02-18T08:45:36.885Z,11.9
2023-02-18T08:48:16.485Z,11.7
2023-02-18T08:49:32.888Z,12
2023-02-18T08:51:37.654Z,11.9
2023-02-18T08:53:34.752Z,11.9
2023-02-18T08:55:36.049Z,11.8
2023-02-18T08:59:33.314Z,11.4
2023-02-18T09:01:36.171Z,11.6
2023-02-18T09:05:35.063Z,11.8
2023-02-18T09:07:34.573Z,11.7
2023-02-18T09:11:36.226Z,11.7
2023-02-18T09:13:37.557Z,11.7
2023-02-18T09:17:34.732Z,11.8
2023-02-18T09:19:36.088Z,11.8
2023-02-18T09:23:36.427Z,11.9
2023-02-18T09:25:35.944Z,12.1
2023-02-18T09:27:35.882Z,12
2023-02-18T09:29:34.576Z,12
2023-02-18T09:31:36.145Z,12
2023-02-18T09:35:36.115Z,12.2
2023-02-18T09:37:34.331Z,12.2
2023-02-18T09:41:36.050Z,12.3
2023-02-18T09:43:35.742Z,12.3
2023-02-18T09:45:37.139Z,12.3
2023-02-18T09:47:33.527Z,12.2
2023-02-18T09:49:35.973Z,12.2
2023-02-18T09:51:37.842Z,12.2
2023-02-18T09:53:33.038Z,12.2
2023-02-18T09:57:35.189Z,12.3
2023-02-18T09:59:31.594Z,12.2
2023-02-18T10:01:30.625Z,12.3
2023-02-18T10:03:34.073Z,12.3
2023-02-18T10:05:32.728Z,12.3
2023-02-18T10:07:29.145Z,12.3
2023-02-18T10:09:33.745Z,12.3
2023-02-18T10:11:33.074Z,12.4
2023-02-18T10:13:33.026Z,12.3
2023-02-18T10:15:34.363Z,12.4
2023-02-18T10:17:29.071Z,12.4
2023-02-18T10:19:32.871Z,12.4
2023-02-18T10:23:33.088Z,12.5
2023-02-18T10:25:27.285Z,12.6
2023-02-18T10:29:29.155Z,12.6
2023-02-18T10:31:30.630Z,12.6
2023-02-18T10:33:34.006Z,12.6
2023-02-18T10:35:29.592Z,12.6
2023-02-18T10:37:30.550Z,12.6
2023-02-18T10:39:33.924Z,12.6
2023-02-18T10:41:27.322Z,12.6
2023-02-18T10:43:27.279Z,12.6
2023-02-18T10:47:28.583Z,12.6
2023-02-18T10:49:32.313Z,12.6
2023-02-18T10:51:33.753Z,12.6
2023-02-18T10:53:28.964Z,12.6
2023-02-18T10:55:32.690Z,12.6
2023-02-18T10:57:35.807Z,12.6
2023-02-18T10:59:27.292Z,12.6
2023-02-18T11:01:29.194Z,12.6
2023-02-18T11:03:33.646Z,12.6
2023-02-18T11:05:32.415Z,12.6
2023-02-18T11:07:31.940Z,12.5
2023-02-18T11:09:33.836Z,12.6
2023-02-18T11:11:33.908Z,12.6
2023-02-18T11:13:30.573Z,12.6
2023-02-18T11:15:32.990Z,12.6
2023-02-18T11:17:29.521Z,12.4
2023-02-18T11:19:32.759Z,12.5
2023-02-18T11:21:34.013Z,12.4
2023-02-18T11:23:27.276Z,12.4
2023-02-18T11:25:27.363Z,12.3
2023-02-18T11:27:34.197Z,12.3
2023-02-18T11:29:33.948Z,12.4
2023-02-18T11:33:33.549Z,12.3
2023-02-18T11:35:29.920Z,12.3
2023-02-18T11:37:32.648Z,12.3
2023-02-18T11:39:34.026Z,12.4
2023-02-18T11:41:31.692Z,12.4
2023-02-18T11:43:32.689Z,12.4
2023-02-18T11:47:31.912Z,12.5
2023-02-18T11:49:33.783Z,12.6
2023-02-18T11:53:30.918Z,12.5
2023-02-18T11:55:32.446Z,12.5
2023-02-18T11:59:28.207Z,12.5
2023-02-18T12:01:31.102Z,12.5
2023-02-18T12:03:35.108Z,12.6
2023-02-18T12:05:30.664Z,12.5
2023-02-18T12:07:32.365Z,12.6
2023-02-18T12:09:33.565Z,12.6
2023-02-18T12:11:29.170Z,12.6
2023-02-18T12:13:31.248Z,12.6
2023-02-18T12:17:31.008Z,12.7
2023-02-18T12:19:27.310Z,12.6
2023-02-18T12:21:33.469Z,12.7
2023-02-18T12:23:29.513Z,12.7
2023-02-18T12:25:28.694Z,12.6
2023-02-18T12:29:28.605Z,12.7
2023-02-18T12:31:33.295Z,12.7
2023-02-18T12:33:36.788Z,12.7
2023-02-18T12:35:29.955Z,12.8
2023-02-18T12:37:27.320Z,12.8
2023-02-18T12:39:35.996Z,12.8
2023-02-18T12:41:30.085Z,12.8
2023-02-18T12:43:30.950Z,12.8
2023-02-18T12:45:33.908Z,12.8
2023-02-18T12:47:31.149Z,12.9
2023-02-18T12:49:32.361Z,12.8
2023-02-18T12:51:33.950Z,12.9
2023-02-18T12:53:29.492Z,12.8
2023-02-18T12:55:30.663Z,12.8
2023-02-18T12:57:33.128Z,12.8
2023-02-18T12:59:31.194Z,12.9
2023-02-18T13:01:33.296Z,12.9
2023-02-18T13:03:33.962Z,12.9
2023-02-18T13:05:30.672Z,12.9
2023-02-18T13:07:29.050Z,13
2023-02-18T13:09:33.962Z,13
2023-02-18T13:11:32.301Z,13
2023-02-18T13:13:31.491Z,13.1
2023-02-18T13:15:34.182Z,13.1
2023-02-18T13:17:32.047Z,13.1
2023-02-18T13:19:30.385Z,13.1
2023-02-18T13:23:34.191Z,13
2023-02-18T13:25:28.697Z,13.1
2023-02-18T13:29:31.102Z,13.1
2023-02-18T13:33:33.903Z,13.1
2023-02-18T13:35:34.213Z,13.1
2023-02-18T13:37:30.388Z,13
2023-02-18T13:39:33.986Z,13.1
2023-02-18T13:41:28.585Z,13.1
2023-02-18T13:43:31.805Z,13.1
2023-02-18T13:47:27.303Z,13.1
2023-02-18T13:49:30.849Z,13.1
2023-02-18T13:51:33.983Z,13.1
2023-02-18T13:53:32.304Z,13.1
2023-02-18T13:55:32.314Z,13.1
2023-02-18T13:59:27.292Z,13.1
2023-02-18T14:01:33.211Z,13.1
2023-02-18T14:03:33.594Z,13.1
2023-02-18T14:05:31.188Z,13
2023-02-18T14:07:29.154Z,13
2023-02-18T14:11:30.566Z,13.1
2023-02-18T14:13:30.867Z,13.1
2023-02-18T14:15:33.260Z,13.1
2023-02-18T14:17:31.023Z,13.2
2023-02-18T14:19:31.093Z,13.2
2023-02-18T14:21:34.047Z,13.3
2023-02-18T14:23:34.405Z,13.3
2023-02-18T14:25:31.064Z,13.3
2023-02-18T14:29:31.426Z,13.2
2023-02-18T14:31:33.331Z,13.2
2023-02-18T14:35:27.792Z,13.1
2023-02-18T14:37:31.240Z,13.1
2023-02-18T14:41:27.355Z,13
2023-02-18T14:43:29.522Z,13.1
2023-02-18T14:45:33.021Z,13.1
2023-02-18T14:47:27.324Z,13.1
2023-02-18T14:49:27.338Z,13.1
2023-02-18T14:53:30.580Z,13.1
2023-02-18T14:55:27.357Z,13.1
2023-02-18T14:59:27.319Z,13.1
2023-02-18T15:01:30.649Z,13.1
2023-02-18T15:03:33.886Z,13.2
2023-02-18T15:05:31.558Z,13.1
2023-02-18T15:07:29.077Z,13.1
2023-02-18T15:09:34.034Z,13.1
2023-02-18T15:11:27.351Z,13.1
2023-02-18T15:13:30.652Z,13
2023-02-18T15:17:30.917Z,12.8
2023-02-18T15:19:29.933Z,12.8
2023-02-18T15:21:32.003Z,12.7
2023-02-18T15:23:27.593Z,12.7
2023-02-18T15:25:32.360Z,12.6
2023-02-18T15:29:31.074Z,12.6
2023-02-18T15:31:30.636Z,12.4
2023-02-18T15:33:33.300Z,12.4
2023-02-18T15:35:29.128Z,12.4
2023-02-18T15:37:30.143Z,12.4
2023-02-18T15:41:32.372Z,12.4
2023-02-18T15:43:29.904Z,12.3
2023-02-18T15:47:27.333Z,12.2
2023-02-18T15:49:33.210Z,12.2
2023-02-18T15:51:33.982Z,12.2
2023-02-18T15:53:34.159Z,12.1
2023-02-18T15:55:29.533Z,12.1
2023-02-18T15:59:31.477Z,12.1
2023-02-18T16:01:28.658Z,12
2023-02-18T16:03:33.834Z,11.9
2023-02-18T16:05:27.354Z,11.9
2023-02-18T16:07:33.531Z,11.9
2023-02-18T16:09:31.181Z,11.9
2023-02-18T16:11:33.736Z,11.8
2023-02-18T16:13:36.865Z,11.8
2023-02-18T16:15:33.000Z,11.8
2023-02-18T16:17:27.618Z,11.7
2023-02-18T16:19:31.006Z,11.7
2023-02-18T16:21:33.973Z,11.7
2023-02-18T16:23:27.351Z,11.7
2023-02-18T16:25:32.703Z,11.7
2023-02-18T16:29:31.401Z,11.7
2023-02-18T16:31:29.647Z,11.5
2023-02-18T16:33:34.025Z,11.5
2023-02-18T16:35:37.574Z,11.5
2023-02-18T16:37:27.328Z,11.4
2023-02-18T16:41:28.595Z,11.5
2023-02-18T16:43:31.739Z,11.4
2023-02-18T16:47:27.332Z,11.4
2023-02-18T16:49:30.571Z,11.3
2023-02-18T16:51:34.028Z,11.3
2023-02-18T16:53:33.849Z,11.2
2023-02-18T16:55:32.382Z,11.3
2023-02-18T16:59:28.708Z,11.2
2023-02-18T17:01:37.087Z,11.1
2023-02-18T17:03:34.171Z,11.1
2023-02-18T17:05:27.473Z,11.1
2023-02-18T17:07:30.467Z,11.1
2023-02-18T17:11:27.412Z,11.1
2023-02-18T17:13:29.946Z,11.2
2023-02-18T17:15:33.526Z,11.1
2023-02-18T17:17:27.409Z,11.1
2023-02-18T17:19:33.567Z,11.1
2023-02-18T17:23:30.984Z,11
2023-02-18T17:25:33.837Z,11
2023-02-18T17:27:32.143Z,11
2023-02-18T17:29:27.361Z,11
2023-02-18T17:33:36.006Z,10.9
2023-02-18T17:35:31.084Z,10.8
2023-02-18T17:37:32.897Z,11
2023-02-18T17:41:32.338Z,10.8
2023-02-18T17:43:30.464Z,11
2023-02-18T17:45:37.218Z,10.9
2023-02-18T17:47:27.328Z,10.9
2023-02-18T17:49:27.378Z,10.9
2023-02-18T17:51:32.779Z,10.9
2023-02-18T17:53:29.973Z,10.9
2023-02-18T17:55:27.377Z,10.9
2023-02-18T17:59:30.598Z,10.9
2023-02-18T18:01:33.381Z,10.9
2023-02-18T18:05:31.181Z,10.9
2023-02-18T18:07:32.895Z,10.7
2023-02-18T18:09:32.166Z,10.8
2023-02-18T18:11:30.207Z,10.9
2023-02-18T18:13:31.074Z,10.9
2023-02-18T18:17:32.822Z,10.8
2023-02-18T18:19:28.624Z,10.9
2023-02-18T18:23:27.649Z,10.8
2023-02-18T18:25:34.395Z,10.9
2023-02-18T18:29:33.291Z,10.9
2023-02-18T18:31:33.423Z,11.1
2023-02-18T18:35:31.184Z,11
2023-02-18T18:37:29.987Z,11
2023-02-18T18:41:30.269Z,11
2023-02-18T18:43:30.772Z,10.9
2023-02-18T18:47:32.207Z,10.9
2023-02-18T18:51:33.955Z,11
2023-02-18T18:53:30.017Z,11
2023-02-18T18:55:27.377Z,10.9
2023-02-18T18:59:31.097Z,10.9
2023-02-18T19:01:27.895Z,10.9
2023-02-18T19:05:32.384Z,11
2023-02-18T19:07:27.377Z,10.9
2023-02-18T19:09:33.895Z,10.9
2023-02-18T19:11:27.690Z,10.9
2023-02-18T19:13:33.270Z,11
2023-02-18T19:15:33.967Z,10.9
2023-02-18T19:17:33.987Z,10.9
2023-02-18T19:19:33.243Z,10.9
2023-02-18T19:21:34.209Z,10.9
2023-02-18T19:23:34.044Z,10.9
2023-02-18T19:25:32.749Z,10.8
2023-02-18T19:29:30.258Z,10.9
2023-02-18T19:33:33.793Z,10.8
2023-02-18T19:35:31.915Z,10.8
2023-02-18T19:37:30.243Z,10.7
2023-02-18T19:41:30.542Z,10.6
2023-02-18T19:43:31.495Z,10.6
2023-02-18T19:47:30.034Z,10.5
2023-02-18T19:49:30.309Z,10.4
2023-02-18T19:53:27.637Z,10.5
2023-02-18T19:55:28.728Z,10.5
2023-02-18T19:59:33.229Z,10.5
2023-02-18T20:01:30.267Z,10.3
2023-02-18T20:05:30.265Z,10.4
2023-02-18T20:07:27.406Z,10.4
2023-02-18T20:11:30.973Z,10.3
2023-02-18T20:13:30.694Z,10.2
2023-02-18T20:17:31.578Z,10.2
2023-02-18T20:19:27.459Z,10.2
2023-02-18T20:23:34.363Z,10.2
2023-02-18T20:25:30.264Z,10.2
2023-02-18T20:29:32.851Z,10.3
2023-02-18T20:31:27.529Z,10.2
2023-02-18T20:33:34.093Z,10.2
2023-02-18T20:35:29.950Z,10.2
2023-02-18T20:37:28.862Z,10.2
2023-02-18T20:41:32.453Z,10.2
2023-02-18T20:43:33.150Z,10.2
2023-02-18T20:45:33.851Z,10.1
2023-02-18T20:47:27.440Z,10.1
2023-02-18T20:49:31.203Z,10
2023-02-18T20:53:32.306Z,10
2023-02-18T20:55:34.267Z,9.9
2023-02-18T20:57:33.573Z,9.9
2023-02-18T20:59:27.412Z,10
2023-02-18T21:01:27.740Z,9.9
2023-02-18T21:03:33.897Z,9.9
2023-02-18T21:05:31.184Z,9.9
2023-02-18T21:07:27.751Z,9.8
2023-02-18T21:11:30.427Z,9.8
2023-02-18T21:13:31.103Z,9.9
2023-02-18T21:17:33.962Z,9.8
2023-02-18T21:19:28.742Z,9.8
2023-02-18T21:21:34.688Z,9.8
2023-02-18T21:23:30.681Z,9.8
2023-02-18T21:25:34.367Z,9.7
2023-02-18T21:29:28.669Z,9.7
2023-02-18T21:31:27.507Z,9.7
2023-02-18T21:35:30.894Z,9.6
2023-02-18T21:37:29.601Z,9.6
2023-02-18T21:41:29.270Z,9.6
2023-02-18T21:43:27.658Z,9.6
2023-02-18T21:47:31.345Z,9.6
2023-02-18T21:49:30.277Z,9.6
2023-02-18T21:53:31.952Z,9.6
2023-02-18T21:55:32.284Z,9.5
2023-02-18T21:57:34.129Z,9.5
2023-02-18T21:59:30.560Z,9.5
2023-02-18T22:01:30.703Z,9.5
2023-02-18T22:03:34.311Z,9.4
2023-02-18T22:05:31.107Z,9.5
2023-02-18T22:07:31.269Z,9.5
2023-02-18T22:11:30.273Z,9.4
2023-02-18T22:13:32.360Z,9.4
2023-02-18T22:17:30.757Z,9.4
2023-02-18T22:19:28.682Z,9.4
2023-02-18T22:23:30.272Z,9.4
2023-02-18T22:25:31.120Z,9.4
2023-02-18T22:29:27.692Z,9.4
2023-02-18T22:31:27.560Z,9.3
2023-02-18T22:35:27.711Z,9.3
2023-02-18T22:37:28.688Z,9.3
2023-02-18T22:39:33.907Z,9.3
2023-02-18T22:41:30.039Z,9.3
2023-02-18T22:43:32.030Z,9.3
2023-02-18T22:45:34.312Z,9.3
2023-02-18T22:47:27.439Z,9.3
2023-02-18T22:49:29.607Z,9.3
2023-02-18T22:53:30.430Z,9.3
2023-02-18T22:55:32.314Z,9.3
2023-02-18T22:57:34.098Z,9.3
2023-02-18T22:59:34.255Z,9.3
2023-02-18T23:01:32.169Z,9.3
2023-02-18T23:03:33.437Z,9.3
2023-02-18T23:05:30.438Z,9.3
2023-02-18T23:07:37.889Z,9.3
2023-02-18T23:11:32.358Z,9.3
2023-02-18T23:13:30.535Z,9.3
2023-02-18T23:15:34.003Z,9.2
2023-02-18T23:17:27.420Z,9.3
2023-02-18T23:19:27.413Z,9.2
2023-02-18T23:23:28.138Z,9.2
2023-02-18T23:25:31.151Z,9.3
2023-02-18T23:29:34.180Z,9.3
2023-02-18T23:31:33.741Z,9.3
2023-02-18T23:35:32.917Z,9.3
2023-02-18T23:37:27.444Z,9.3
2023-02-18T23:39:34.009Z,9.3
2023-02-18T23:41:27.383Z,9.4
2023-02-18T23:43:30.562Z,9.3
2023-02-18T23:45:34.111Z,9.3
2023-02-18T23:47:28.678Z,9.3
2023-02-18T23:49:30.532Z,9.3
2023-02-18T23:51:34.118Z,9.3
2023-02-18T23:53:31.292Z,9.3
2023-02-18T23:55:32.392Z,9.3
2023-02-18T23:57:34.014Z,9.3
2023-02-18T23:59:31.119Z,9.3
